Accueil
METAR-TAF:

METAR-TAF

Aéroports :

Reus, Espagne

Aéroport de Reus

latitude: 41-09N, longitude: 001-10E, altitude: 71 m

Observation

Le bulletin a été fait il y a 44 minutes, à 23:30 UTC
Vent 1 kt de nord/nord-est
Température 16°C
Humidité 77%
Pression 1018 hPa
Visibilité 10 km ou plus

METAR: LERS 282330Z AUTO 02001KT 9999 NCD 16/12 Q1018

Heure: 02:14 (00:14 UTC)

Prévision

Le bulletin a été fait il y a 4 heures et 14 minutes, à 20:00 UTC
Prévision valable du 28 à 21 UTC au 29 à 21 UTC
Vent 3 kt de direction variable
Visibilité 10 km ou plus
Quelques nuages à une hauteur de 2000 ft
Evoluant progressivement
du 29 à 10 UTC au 29 à 12 UTC
Vent 8 kt de sud-est
Evoluant progressivement
du 29 à 18 UTC au 29 à 20 UTC
Vent 3 kt de direction variable

TAF: LERS 282000Z 2821/2921 VRB03KT 9999 FEW020 TX27/2913Z TN17/2906Z BECMG 2910/2912 13008KT BECMG 2918/2920 VRB03KT

Observations et prévisions météorologiques de plus de 4000 aéroports (messages METAR et TAF).

Les stations disponibles sont représentées par des disques jaunes et rouges sur la carte.

Passer la souris dessus pour voir le nom de la station.

Cliquer dessus pour voir les observations et prévisions météorologiques.

Pour changer de carte: cliquez sur les boutons verts avec une croix noire pour zoomer, sur le bouton vert avec un tiret pour effectuer un zoom arrière, ou sur les flèches vertes pour les cartes adjacentes.


METAR-TAF: